Time;durP1;ratioP1;P1;durP2;ratioP2;P2;SDS_P1;SDS_P2;PMS_P1;PMS_P2;Temp;Humidity;BMP_temperature;BMP_pressure;BME280_temperature;BME280_humidity;BME280_pressure;Samples;Min_cycle;Max_cycle;Signal;HPM_P1;HPM_P2
2022/10/11 04:05:47;;;;;;;8.30;5.28;;;;;;;10.68;100.00;100968.78;6630127;26;20082;-87
2022/10/11 04:08:50;;;;;;;8.95;5.25;;;;;;;10.73;100.00;100966.41;6661781;26;34935;-88
2022/10/11 04:11:52;;;;;;;12.77;5.30;;;;;;;10.69;100.00;100973.16;6661467;26;34348;-88
2022/10/11 04:14:55;;;;;;;9.43;5.53;;;;;;;10.77;100.00;100981.25;6661645;26;35472;-88
2022/10/11 04:17:57;;;;;;;9.18;5.57;;;;;;;10.76;100.00;100970.62;6662458;26;34755;-88
2022/10/11 04:21:00;;;;;;;8.05;4.80;;;;;;;10.81;100.00;100966.44;6662698;26;34780;-88
2022/10/11 04:24:03;;;;;;;6.35;4.90;;;;;;;10.83;100.00;100985.16;6641817;26;32753;-88
2022/10/11 04:27:06;;;;;;;8.23;4.78;;;;;;;10.86;100.00;100969.50;6661936;26;33686;-88
2022/10/11 04:30:10;;;;;;;9.15;5.10;;;;;;;10.95;99.16;100972.22;6661818;26;33773;-88
2022/10/11 04:33:13;;;;;;;10.98;5.10;;;;;;;10.90;98.46;100970.84;6662228;26;33723;-88
2022/10/11 04:36:15;;;;;;;7.03;4.95;;;;;;;10.96;98.55;100976.59;6662594;26;34062;-88
2022/10/11 04:39:18;;;;;;;9.63;5.28;;;;;;;10.95;99.13;100981.12;6662921;26;34109;-88
2022/10/11 04:42:21;;;;;;;8.98;5.07;;;;;;;10.88;99.53;100974.69;6662121;26;33568;-88
2022/10/11 04:45:23;;;;;;;9.10;4.65;;;;;;;10.84;100.00;100976.06;6664064;26;33895;-88
2022/10/11 04:48:26;;;;;;;7.15;4.85;;;;;;;10.84;100.00;100970.66;6678054;26;34170;-88
2022/10/11 04:51:29;;;;;;;8.57;4.75;;;;;;;10.90;100.00;100973.53;6678315;26;34319;-88
2022/10/11 04:54:31;;;;;;;12.82;5.20;;;;;;;10.90;100.00;100968.16;6663506;26;33940;-88
2022/10/11 04:57:34;;;;;;;7.20;5.05;;;;;;;10.82;100.00;100968.16;6668543;26;33917;-90
2022/10/11 05:00:37;;;;;;;9.85;4.97;;;;;;;10.88;100.00;100963.94;6665049;26;35292;-92
2022/10/11 05:03:40;;;;;;;11.32;5.05;;;;;;;10.87;100.00;100968.47;6666208;26;34037;-92
2022/10/11 05:06:42;;;;;;;15.48;5.47;;;;;;;10.86;100.00;100968.66;6664679;26;34856;-92
2022/10/11 05:09:45;;;;;;;9.77;5.60;;;;;;;10.87;100.00;100976.56;6665460;26;34649;-88
2022/10/11 05:12:47;;;;;;;9.02;5.35;;;;;;;10.91;100.00;100969.00;6667197;26;34290;-88
2022/10/11 05:15:50;;;;;;;9.48;5.20;;;;;;;11.00;100.00;100975.25;6662234;26;34036;-87
2022/10/11 05:18:53;;;;;;;9.18;4.80;;;;;;;11.05;100.00;100970.19;6661751;26;34120;-87
2022/10/11 05:21:56;;;;;;;8.38;5.18;;;;;;;11.15;98.93;100980.84;6661661;26;33635;-88
2022/10/11 05:24:58;;;;;;;10.73;4.93;;;;;;;11.17;99.38;100973.41;6641158;26;32688;-87
2022/10/11 05:28:01;;;;;;;9.45;5.45;;;;;;;11.26;97.99;100985.87;6661492;26;34873;-87
2022/10/11 05:31:04;;;;;;;8.23;5.18;;;;;;;11.35;97.14;100980.34;6662409;26;33925;-87
2022/10/11 05:34:07;;;;;;;9.15;4.60;;;;;;;11.51;97.52;100984.03;6663300;26;33860;-87
2022/10/11 05:37:09;;;;;;;10.60;4.95;;;;;;;11.60;95.66;100983.03;6662606;26;34889;-88
2022/10/11 05:40:12;;;;;;;7.85;4.87;;;;;;;11.61;94.33;100983.84;6671543;26;34359;-87
2022/10/11 05:43:15;;;;;;;10.00;4.78;;;;;;;11.66;94.27;101000.38;6684225;26;35495;-88
2022/10/11 05:46:18;;;;;;;11.18;4.85;;;;;;;11.67;92.56;100999.34;6672688;26;35116;-87
2022/10/11 05:49:20;;;;;;;8.15;4.87;;;;;;;11.84;92.08;101000.19;6641759;26;32711;-87
2022/10/11 05:52:23;;;;;;;10.07;5.00;;;;;;;11.90;90.94;101000.38;6643105;26;34089;-87
2022/10/11 05:55:26;;;;;;;8.13;5.03;;;;;;;12.00;90.99;101003.75;6642494;26;33275;-87
2022/10/11 05:58:30;;;;;;;9.75;5.78;;;;;;;11.88;92.86;101009.69;6662849;26;34840;-87
2022/10/11 06:01:32;;;;;;;7.37;4.80;;;;;;;11.94;92.95;101011.69;6642697;26;33649;-87
2022/10/11 06:04:36;;;;;;;9.00;4.78;;;;;;;11.87;92.92;101011.50;6662308;26;34246;-87
2022/10/11 06:07:38;;;;;;;7.35;5.18;;;;;;;11.81;90.65;101012.16;6662495;26;33570;-87
2022/10/11 06:10:41;;;;;;;9.27;4.85;;;;;;;11.83;90.58;101017.41;6642475;26;33645;-87
2022/10/11 06:13:44;;;;;;;11.85;5.10;;;;;;;11.93;90.14;101021.62;6662535;26;34039;-88
2022/10/11 06:16:46;;;;;;;8.02;5.15;;;;;;;11.97;89.25;101020.28;6662797;26;33328;-87
2022/10/11 06:19:50;;;;;;;6.45;4.80;;;;;;;12.16;87.48;101031.69;6663153;26;33980;-88
2022/10/11 06:22:53;;;;;;;12.70;5.05;;;;;;;12.29;86.52;101034.72;6662426;26;34315;-88
2022/10/11 06:26:00;;;;;;;8.07;4.55;;;;;;;12.47;85.66;101029.09;6642123;26;33935;-88
2022/10/11 06:29:04;;;;;;;8.52;4.40;;;;;;;12.64;84.91;101029.87;6662684;26;34221;-87
2022/10/11 06:32:07;;;;;;;7.22;4.15;;;;;;;12.71;82.48;101028.16;6662381;26;33838;-88
2022/10/11 06:35:09;;;;;;;6.53;4.50;;;;;;;12.76;82.13;101033.87;6662885;26;34602;-87
2022/10/11 06:38:12;;;;;;;8.77;4.82;;;;;;;12.90;81.96;101033.13;6642264;26;32488;-87
2022/10/11 06:41:17;;;;;;;8.45;5.20;;;;;;;12.95;81.47;101032.59;6662962;26;34834;-88
2022/10/11 06:44:19;;;;;;;6.32;4.70;;;;;;;12.92;82.51;101035.62;6641689;26;32500;-87
2022/10/11 06:47:22;;;;;;;6.32;4.43;;;;;;;12.92;82.48;101032.94;6661860;26;34774;-87
2022/10/11 06:50:25;;;;;;;8.05;4.60;;;;;;;12.97;82.91;101029.72;6662063;26;33798;-88
2022/10/11 06:53:49;;;;;;;7.85;5.25;;;;;;;13.02;82.05;101027.31;6663317;26;33905;-87
2022/10/11 06:56:52;;;;;;;7.15;4.53;;;;;;;13.11;83.20;101032.50;6643955;26;32613;-88
2022/10/11 06:59:55;;;;;;;13.13;5.37;;;;;;;13.12;82.49;101034.16;6665212;26;33628;-87
2022/10/11 07:02:57;;;;;;;6.68;5.22;;;;;;;13.29;81.99;101042.22;6643039;26;33076;-87
2022/10/11 07:06:02;;;;;;;8.80;5.37;;;;;;;13.41;82.21;101042.66;6663666;26;36035;-87
2022/10/11 07:09:06;;;;;;;7.65;4.70;;;;;;;13.53;80.88;101042.03;6642876;26;32539;-90
2022/10/11 07:12:09;;;;;;;8.10;4.72;;;;;;;13.59;79.69;101044.00;6643335;26;32786;-91
2022/10/11 07:15:12;;;;;;;9.05;5.05;;;;;;;13.63;79.07;101047.22;6663749;26;34912;-92
2022/10/11 07:18:14;;;;;;;8.75;5.28;;;;;;;13.76;78.65;101057.41;6641767;26;32254;-90
2022/10/11 07:21:17;;;;;;;10.27;4.75;;;;;;;13.94;78.70;101055.22;6642303;26;32471;-88
2022/10/11 07:24:20;;;;;;;8.52;4.62;;;;;;;14.16;77.16;101047.25;6642767;26;33670;-88
2022/10/11 07:27:22;;;;;;;7.62;5.15;;;;;;;14.33;77.20;101048.72;6646407;26;32954;-88
2022/10/11 07:30:25;;;;;;;9.52;5.53;;;;;;;14.57;76.47;101053.09;6675567;26;34401;-88
2022/10/11 07:33:27;;;;;;;8.32;4.95;;;;;;;14.33;75.71;101050.59;6679613;26;35188;-87
2022/10/11 07:36:30;;;;;;;11.05;4.75;;;;;;;14.42;75.24;101053.06;6673087;26;34057;-90
2022/10/11 07:39:33;;;;;;;7.57;4.70;;;;;;;14.68;75.36;101047.19;6649813;26;33324;-88
2022/10/11 07:42:36;;;;;;;8.18;4.90;;;;;;;15.08;74.87;101044.13;6661970;26;34011;-87
2022/10/11 07:45:40;;;;;;;9.27;5.03;;;;;;;15.33;71.59;101044.63;6661915;26;35369;-87
2022/10/11 07:48:43;;;;;;;6.93;4.62;;;;;;;15.74;70.81;101052.97;6661776;26;34944;-88
2022/10/11 07:51:46;;;;;;;7.05;4.85;;;;;;;15.87;69.31;101041.38;6641281;26;33782;-87
2022/10/11 07:54:48;;;;;;;7.18;4.87;;;;;;;16.17;68.50;101049.34;6661851;26;33527;-87
2022/10/11 07:57:51;;;;;;;8.65;5.20;;;;;;;16.21;66.89;101050.63;6662109;26;33652;-87
2022/10/11 08:00:54;;;;;;;8.85;4.65;;;;;;;15.91;67.53;101048.09;6662176;26;33990;-87
2022/10/11 08:03:58;;;;;;;8.82;4.68;;;;;;;15.73;67.27;101048.56;6641644;26;32341;-87
2022/10/11 08:07:00;;;;;;;10.02;4.90;;;;;;;15.82;68.20;101057.41;6661883;26;34099;-87
2022/10/11 08:10:05;;;;;;;7.87;4.80;;;;;;;15.98;69.13;101056.31;6641255;26;32734;-87
2022/10/11 08:13:07;;;;;;;11.60;5.20;;;;;;;15.97;69.57;101058.19;6641731;26;33211;-87
2022/10/11 08:16:11;;;;;;;7.60;4.53;;;;;;;15.92;68.30;101051.66;6663234;26;33779;-88
2022/10/11 08:19:15;;;;;;;7.60;5.00;;;;;;;16.00;68.76;101052.38;6662902;26;35389;-88
2022/10/11 08:22:17;;;;;;;12.15;5.37;;;;;;;15.86;68.02;101058.72;6661564;26;33914;-87
2022/10/11 08:25:20;;;;;;;7.15;4.80;;;;;;;15.90;69.14;101062.72;6661048;26;33901;-87
2022/10/11 08:28:23;;;;;;;8.73;4.90;;;;;;;16.07;68.27;101055.97;6662575;26;35547;-87
2022/10/11 08:31:26;;;;;;;11.25;5.30;;;;;;;16.16;68.39;101058.53;6661725;26;35128;-87
2022/10/11 08:34:28;;;;;;;10.15;5.60;;;;;;;16.38;67.03;101054.72;6641186;26;32724;-87
2022/10/11 08:37:31;;;;;;;7.95;5.10;;;;;;;16.49;66.52;101054.13;6660837;26;34098;-87
2022/10/11 08:40:34;;;;;;;12.70;5.60;;;;;;;16.64;65.68;101064.06;6664589;26;33542;-87
2022/10/11 08:44:04;;;;;;;9.88;5.57;;;;;;;16.62;65.50;101058.84;6660835;26;33675;-87
2022/10/11 08:47:19;;;;;;;9.52;5.70;;;;;;;16.95;65.43;101059.00;6660541;26;33921;-87
2022/10/11 08:50:23;;;;;;;7.70;5.90;;;;;;;17.16;64.55;101051.75;6660698;26;34155;-88
2022/10/11 08:53:50;;;;;;;10.65;6.05;;;;;;;17.03;64.69;101054.44;6642098;26;32624;-87
2022/10/11 08:56:53;;;;;;;9.10;5.45;;;;;;;17.42;65.05;101045.53;6662342;26;34421;-88
2022/10/11 09:00:03;;;;;;;13.00;7.12;;;;;;;17.53;64.16;101050.37;6664448;26;33968;-87
2022/10/11 09:03:06;;;;;;;10.60;6.87;;;;;;;17.59;62.94;101046.00;6664652;26;34082;-87
2022/10/11 09:06:15;;;;;;;15.35;7.07;;;;;;;17.64;64.24;101049.78;6642259;26;33373;-88
2022/10/11 09:09:20;;;;;;;11.05;6.55;;;;;;;17.82;63.91;101049.19;6642921;26;32611;-87
2022/10/11 09:13:03;;;;;;;12.15;6.10;;;;;;;17.52;64.52;101042.41;6661980;26;35543;-88
2022/10/11 09:16:16;;;;;;;10.88;6.75;;;;;;;17.64;65.98;101052.50;6641222;26;33605;-88
2022/10/11 09:19:50;;;;;;;15.80;7.60;;;;;;;17.81;67.45;101039.34;6661226;26;34082;-87
2022/10/11 09:23:12;;;;;;;11.88;6.50;;;;;;;18.06;66.75;101049.59;6662700;26;34904;-88
2022/10/11 09:26:30;;;;;;;17.23;6.70;;;;;;;18.33;65.19;101053.94;6661922;26;34307;-87
2022/10/11 09:30:01;;;;;;;11.15;6.72;;;;;;;18.63;64.90;101061.63;6641101;26;34267;-90
2022/10/11 09:33:32;;;;;;;13.40;6.95;;;;;;;18.71;62.92;101066.88;6642181;26;32809;-88
2022/10/11 09:36:58;;;;;;;9.43;6.80;;;;;;;18.92;64.48;101056.75;6662861;26;34862;-87
2022/10/11 09:40:10;;;;;;;10.45;7.05;;;;;;;19.09;61.34;101060.66;6641554;26;32341;-88
2022/10/11 09:43:13;;;;;;;9.13;6.25;;;;;;;19.14;61.28;101060.03;6661390;26;34177;-88
2022/10/11 09:46:30;;;;;;;13.32;6.70;;;;;;;19.31;61.03;101052.16;6661856;26;34098;-86
2022/10/11 09:49:41;;;;;;;12.85;6.45;;;;;;;19.67;60.33;101055.09;6661838;26;34709;-86
2022/10/11 09:53:03;;;;;;;10.60;5.75;;;;;;;19.54;59.17;101052.44;6662197;26;34909;-84
2022/10/11 09:56:06;;;;;;;12.65;6.25;;;;;;;19.64;58.78;101044.56;6667887;26;34036;-85
2022/10/11 09:59:33;;;;;;;10.27;5.55;;;;;;;19.36;58.64;101046.87;6677229;26;35467;-86
2022/10/11 10:02:45;;;;;;;9.70;6.80;;;;;;;19.63;57.85;101051.09;6642645;26;32353;-90
2022/10/11 10:06:20;;;;;;;16.58;6.40;;;;;;;19.62;58.30;101062.25;6641726;26;32417;-86
2022/10/11 10:09:29;;;;;;;11.40;6.65;;;;;;;19.86;58.25;101063.34;6662800;26;34106;-86
2022/10/11 10:12:32;;;;;;;12.32;6.55;;;;;;;19.85;57.74;101057.06;6662841;26;33539;-86
2022/10/11 10:15:36;;;;;;;13.13;7.30;;;;;;;20.56;56.62;101049.47;6663156;26;34086;-86
2022/10/11 10:18:58;;;;;;;11.10;6.90;;;;;;;20.64;56.36;101051.91;6665773;26;34006;-85
2022/10/11 10:22:01;;;;;;;13.23;6.20;;;;;;;21.20;55.87;101034.34;6662216;26;33998;-86
2022/10/11 10:25:06;;;;;;;9.98;7.30;;;;;;;21.63;55.30;101032.50;6662712;26;34989;-86
2022/10/11 10:28:19;;;;;;;13.18;7.07;;;;;;;21.87;53.65;101038.84;6662633;26;34604;-86
2022/10/11 10:31:28;;;;;;;10.80;7.12;;;;;;;22.24;52.54;101025.78;6661835;26;34047;-86
2022/10/11 10:34:35;;;;;;;9.40;6.70;;;;;;;21.93;53.07;101019.53;6641320;26;33644;-85
2022/10/11 10:37:42;;;;;;;12.98;7.00;;;;;;;22.53;51.86;101034.09;6642086;26;33570;-85
2022/10/11 10:40:55;;;;;;;11.77;6.85;;;;;;;22.47;51.92;101024.09;6661248;26;34486;-86
2022/10/11 10:43:59;;;;;;;14.65;7.50;;;;;;;22.75;51.29;101021.38;6641999;26;32384;-86
2022/10/11 10:47:19;;;;;;;13.43;7.20;;;;;;;22.69;50.92;101019.63;6662476;26;33908;-86
2022/10/11 10:50:44;;;;;;;12.27;7.20;;;;;;;22.18;53.41;101021.25;6644193;26;33325;-90
2022/10/11 10:53:57;;;;;;;11.75;7.40;;;;;;;22.32;53.23;101019.94;6642718;26;33518;-86
2022/10/11 10:57:03;;;;;;;11.68;7.47;;;;;;;22.45;53.08;101020.75;6663903;26;34346;-86
2022/10/11 11:00:18;;;;;;;11.00;7.50;;;;;;;21.78;56.10;101019.16;6644656;26;32531;-86
2022/10/11 11:03:32;;;;;;;12.93;8.27;;;;;;;22.58;52.11;101010.34;6662075;26;34436;-86
2022/10/11 11:06:47;;;;;;;13.00;7.85;;;;;;;22.57;52.55;101007.84;6660649;26;35360;-86
2022/10/11 11:09:58;;;;;;;11.73;7.25;;;;;;;22.73;52.46;101011.75;6639977;26;33534;-86
2022/10/11 11:13:03;;;;;;;14.32;7.65;;;;;;;22.83;52.39;101010.03;6661812;26;34604;-86
2022/10/11 11:16:17;;;;;;;10.82;7.43;;;;;;;23.95;49.00;101004.91;6661730;26;35339;-86
2022/10/11 11:19:37;;;;;;;12.10;7.40;;;;;;;24.11;47.58;101006.00;6661644;26;33683;-86
2022/10/11 11:22:46;;;;;;;11.68;7.68;;;;;;;24.10;48.50;101009.81;6671672;26;33955;-86
2022/10/11 11:26:14;;;;;;;11.00;7.43;;;;;;;23.46;50.61;101010.16;6664543;26;34854;-86
2022/10/11 11:29:42;;;;;;;14.18;7.93;;;;;;;23.62;50.33;101006.56;6655605;26;187603;-91
2022/10/11 11:32:50;;;;;;;12.30;7.35;;;;;;;23.79;48.31;101001.09;6668202;26;33849;-87
2022/10/11 11:36:00;;;;;;;12.40;7.30;;;;;;;23.25;50.14;100987.81;6651197;26;33682;-86
2022/10/11 11:39:05;;;;;;;14.57;7.05;;;;;;;24.19;49.12;101000.91;6648950;26;33782;-86
2022/10/11 11:42:16;;;;;;;10.98;7.07;;;;;;;24.41;46.44;100995.41;6661736;26;33654;-86
2022/10/11 11:45:45;;;;;;;11.10;7.18;;;;;;;24.15;47.70;100988.72;6671522;26;33632;-86
2022/10/11 11:48:51;;;;;;;8.35;6.93;;;;;;;24.50;48.39;100990.31;6651177;26;33999;-86
2022/10/11 11:51:55;;;;;;;8.85;6.62;;;;;;;25.77;45.15;100985.31;6667371;26;34039;-86
2022/10/11 11:55:15;;;;;;;11.90;7.28;;;;;;;27.09;42.12;100989.06;6662954;26;35412;-86
2022/10/11 11:58:42;;;;;;;13.65;7.78;;;;;;;26.69;41.81;100988.66;6660462;26;33923;-86
2022/10/11 12:02:10;;;;;;;11.87;7.47;;;;;;;24.84;45.39;100984.69;6665810;26;34525;-86
2022/10/11 12:05:17;;;;;;;9.70;6.60;;;;;;;25.70;45.02;100979.19;6641400;26;32652;-87
2022/10/11 12:08:26;;;;;;;12.68;6.90;;;;;;;25.88;43.30;100986.25;6661400;26;34848;-87
2022/10/11 12:11:40;;;;;;;11.60;6.85;;;;;;;26.32;42.63;100985.97;6661031;26;34552;-87
2022/10/11 12:14:43;;;;;;;10.75;7.25;;;;;;;26.61;41.69;100975.34;6640819;26;32878;-87
2022/10/11 12:17:52;;;;;;;14.13;7.82;;;;;;;25.49;43.40;100982.87;6661323;26;34847;-87
2022/10/11 12:21:04;;;;;;;9.82;6.60;;;;;;;24.26;46.32;100975.13;6640892;26;32382;-86
2022/10/11 12:24:30;;;;;;;13.88;7.75;;;;;;;26.78;42.34;100977.06;6661074;26;33961;-86
2022/10/11 12:27:42;;;;;;;10.98;7.12;;;;;;;28.35;37.28;100971.88;6670031;26;33682;-86
2022/10/11 12:30:54;;;;;;;10.73;7.00;;;;;;;29.33;35.44;100965.53;6674745;26;34245;-86
2022/10/11 12:33:59;;;;;;;9.77;6.50;;;;;;;29.03;35.45;100971.31;6661043;26;33929;-87
2022/10/11 12:37:25;;;;;;;10.30;7.05;;;;;;;28.71;36.38;100962.31;6660544;26;33605;-87
2022/10/11 12:40:44;;;;;;;10.93;6.95;;;;;;;27.37;38.02;100962.84;6609870;26;33679;-86
2022/10/11 12:43:47;;;;;;;12.75;7.35;;;;;;;25.93;41.17;100961.44;6661930;26;33618;-86
2022/10/11 12:46:49;;;;;;;11.55;6.87;;;;;;;25.53;42.51;100964.72;6641359;26;32219;-90
2022/10/11 12:49:58;;;;;;;9.60;7.15;;;;;;;25.57;42.24;100963.09;6661278;26;35073;-91
2022/10/11 12:53:17;;;;;;;14.43;6.78;;;;;;;25.28;43.93;100959.81;6663610;26;34747;-91
2022/10/11 12:56:43;;;;;;;11.45;6.60;;;;;;;25.26;43.50;100959.25;6663874;26;33525;-87
2022/10/11 12:59:46;;;;;;;10.52;6.78;;;;;;;25.12;44.13;100959.63;6643646;26;32755;-87
2022/10/11 13:02:49;;;;;;;9.35;6.90;;;;;;;24.65;46.80;100956.63;6646488;26;33259;-86
2022/10/11 13:05:55;;;;;;;10.45;7.43;;;;;;;24.08;46.72;100957.81;6662403;26;33670;-87
2022/10/11 13:09:14;;;;;;;14.20;7.20;;;;;;;23.75;46.91;100953.19;6666431;26;33662;-86
2022/10/11 13:12:20;;;;;;;13.48;6.97;;;;;;;23.40;48.78;100951.50;6668472;26;34827;-86
2022/10/11 13:15:23;;;;;;;11.65;7.00;;;;;;;22.78;49.91;100963.25;6662623;26;34883;-87
2022/10/11 13:18:26;;;;;;;13.40;7.82;;;;;;;22.35;50.60;100966.50;6662165;26;33577;-86
2022/10/11 13:21:33;;;;;;;11.82;8.02;;;;;;;22.21;50.74;100957.69;6663083;26;34304;-86
2022/10/11 13:24:38;;;;;;;10.10;7.05;;;;;;;22.09;50.63;100960.41;6641842;26;34102;-86
2022/10/11 13:27:42;;;;;;;10.23;7.68;;;;;;;22.07;51.83;100958.97;6642170;26;33174;-86
2022/10/11 13:30:52;;;;;;;11.25;7.20;;;;;;;22.16;50.60;100952.88;6672117;26;34360;-87
2022/10/11 13:34:13;;;;;;;10.90;7.32;;;;;;;22.30;50.83;100958.16;6663456;26;33756;-86
2022/10/11 13:37:24;;;;;;;12.80;7.77;;;;;;;22.31;51.44;100954.31;6681562;26;34282;-86
2022/10/11 13:40:28;;;;;;;11.57;7.30;;;;;;;22.45;51.02;100952.16;6672890;26;33878;-86
2022/10/11 13:43:31;;;;;;;11.90;7.20;;;;;;;22.18;51.97;100952.69;6672065;26;33926;-86
2022/10/11 13:46:36;;;;;;;13.55;8.00;;;;;;;22.09;53.40;100957.66;6645079;26;32009;-86
2022/10/11 13:49:44;;;;;;;14.75;7.82;;;;;;;21.68;53.04;100956.72;6661805;26;34524;-90
2022/10/11 13:52:56;;;;;;;11.32;7.57;;;;;;;21.44;54.36;100955.87;6661340;26;33498;-87
2022/10/11 13:56:02;;;;;;;12.35;7.32;;;;;;;21.51;54.02;100953.84;6641642;26;32393;-87
2022/10/11 13:59:06;;;;;;;11.20;7.40;;;;;;;21.30;55.12;100965.34;6662163;26;34462;-87
2022/10/11 14:02:19;;;;;;;13.90;7.80;;;;;;;21.09;55.30;100961.22;6641477;26;32331;-87
2022/10/11 14:05:29;;;;;;;14.23;7.60;;;;;;;20.75;57.28;100965.50;6661946;26;33450;-87
2022/10/11 14:08:41;;;;;;;14.32;7.87;;;;;;;20.68;56.87;100960.09;6661707;26;34271;-88
2022/10/11 14:11:44;;;;;;;10.98;7.10;;;;;;;20.57;57.94;100960.88;6661696;26;35621;-88
2022/10/11 14:14:46;;;;;;;11.05;7.62;;;;;;;20.52;58.53;100960.69;6662731;26;33354;-87
2022/10/11 14:17:50;;;;;;;11.38;7.10;;;;;;;20.54;58.89;100959.44;6641755;26;33024;-87
2022/10/11 14:20:53;;;;;;;11.52;7.50;;;;;;;20.14;58.74;100957.12;6662172;26;33973;-87
2022/10/11 14:23:59;;;;;;;13.48;7.87;;;;;;;19.81;60.66;100968.41;6641323;26;33230;-87
2022/10/11 14:27:04;;;;;;;14.15;8.25;;;;;;;19.80;60.95;100969.47;6641450;26;32407;-87
2022/10/11 14:30:17;;;;;;;10.85;7.78;;;;;;;19.79;60.08;100969.69;6661566;26;34818;-87
2022/10/11 14:33:29;;;;;;;13.52;7.90;;;;;;;19.74;59.81;100967.59;6661002;26;34830;-88
2022/10/11 14:36:33;;;;;;;15.23;7.37;;;;;;;19.63;60.42;100962.87;6660974;26;34116;-87
2022/10/11 14:39:36;;;;;;;12.45;8.23;;;;;;;19.62;61.12;100970.19;6661074;26;34223;-87
2022/10/11 14:42:40;;;;;;;15.95;8.55;;;;;;;19.36;61.45;100960.31;6661791;26;33540;-87
2022/10/11 14:45:43;;;;;;;11.75;7.75;;;;;;;19.26;61.75;100965.44;6642855;26;32827;-87
2022/10/11 14:48:46;;;;;;;13.40;7.50;;;;;;;19.26;62.46;100969.00;6649721;26;32260;-87
2022/10/11 14:51:58;;;;;;;13.73;7.82;;;;;;;19.24;62.73;100971.12;6658919;26;34015;-88
2022/10/11 14:55:01;;;;;;;19.23;8.52;;;;;;;19.13;62.83;100954.59;6665271;26;33721;-88
2022/10/11 14:58:04;;;;;;;14.38;7.82;;;;;;;19.00;63.35;100967.28;6663325;26;34284;-88
2022/10/11 15:01:12;;;;;;;14.68;8.57;;;;;;;19.00;63.88;100969.19;6642334;26;32426;-88
2022/10/11 15:04:15;;;;;;;14.50;7.53;;;;;;;18.99;64.39;100970.25;6660926;26;34814;-87
2022/10/11 15:07:18;;;;;;;13.27;7.93;;;;;;;19.08;64.49;100958.03;6640593;26;32219;-88
2022/10/11 15:10:26;;;;;;;14.38;8.05;;;;;;;19.08;64.54;100962.66;6661274;26;34806;-91
2022/10/11 15:13:29;;;;;;;14.27;8.15;;;;;;;19.10;64.74;100961.38;6661451;26;33524;-92
2022/10/11 15:16:32;;;;;;;13.73;8.40;;;;;;;19.06;63.65;100967.47;6641479;26;32361;-88
2022/10/11 15:19:35;;;;;;;14.27;8.00;;;;;;;19.05;63.67;100965.81;6640434;26;32236;-88
2022/10/11 15:22:37;;;;;;;16.83;8.07;;;;;;;18.99;63.94;100970.25;6661938;26;33987;-88
2022/10/11 15:25:41;;;;;;;10.55;7.70;;;;;;;18.97;64.14;100972.34;6661540;26;34057;-88
2022/10/11 15:28:44;;;;;;;11.07;7.72;;;;;;;18.90;64.20;100977.03;6661782;26;34749;-88
2022/10/11 15:31:48;;;;;;;12.45;7.70;;;;;;;18.84;64.34;100975.13;6663068;26;35923;-88
2022/10/11 15:34:50;;;;;;;13.38;8.07;;;;;;;18.80;65.00;100977.47;6662387;26;34768;-88
2022/10/11 15:37:56;;;;;;;11.88;7.82;;;;;;;18.79;64.42;100975.81;6641102;26;32774;-88
2022/10/11 15:40:59;;;;;;;12.05;8.00;;;;;;;18.68;64.79;100984.62;6641721;26;33762;-88
2022/10/11 15:44:01;;;;;;;13.40;8.00;;;;;;;18.58;65.01;100985.94;6661628;26;34763;-87
2022/10/11 15:47:04;;;;;;;12.95;7.60;;;;;;;18.54;65.80;100990.16;6661268;26;33923;-88
2022/10/11 15:50:32;;;;;;;13.00;8.05;;;;;;;18.47;66.33;100996.69;6661785;26;34751;-87
2022/10/11 15:53:35;;;;;;;12.23;8.45;;;;;;;18.43;65.89;100996.28;6644621;26;32718;-87
